Pleasantville, New York
Current Conditions -  °F | °C
As of 3:56 AM on Friday 24 Oct 2014 (Local Time) from KHPN Reporting Station
Broken Clouds Broken Clouds  
Wind Chill: 45°   Ceiling: 2300
Heat Index: 49°   Visibility: 10mi
Dew Point: 44°   Wind: 9mph
Humidity: 83%   Direction: 300°WNW
Pressure: 29.76"   Gusts: NA
Location:  41.13°N, 73.79°W
Report Text: KHPN 240756Z 30008KT 10SM BKN023 09/07 A2976 RMK AO2 SLP079 T00940067
Loading
Personal Weather Stations






























Interactive Weather Map
Tropical Storm Tracking
New forecast layout! Learn more

10-Day Weather Forecast

Advertisements
Track Severe Weather on mobile